Time;durP1;ratioP1;P1;durP2;ratioP2;P2;SDS_P1;SDS_P2;PMS_P1;PMS_P2;Temp;Humidity;BMP_temperature;BMP_pressure;BME280_temperature;BME280_humidity;BME280_pressure;Samples;Min_cycle;Max_cycle;Signal;HPM_P1;HPM_P2
2022/04/16 00:00:51;;;;;;;5.4;4.15;;;;;;;7.54;63.8291;96021.43;;;;
2022/04/16 00:01:52;;;;;;;5.4;4.15;;;;;;;7.54;63.8291;96021.43;;;;
2022/04/16 00:02:54;;;;;;;5.800001;4.25;;;;;;;7.22;64.125;96013.51;;;;
2022/04/16 00:03:55;;;;;;;5.800001;4.25;;;;;;;7.22;64.125;96013.51;;;;
2022/04/16 00:04:57;;;;;;;5.800001;4.25;;;;;;;7.22;64.125;96013.51;;;;
2022/04/16 00:05:57;;;;;;;5.800001;4.25;;;;;;;7.22;64.125;96013.51;;;;
2022/04/16 00:06:58;;;;;;;5.800001;4.25;;;;;;;7.22;64.125;96013.51;;;;
2022/04/16 00:08:14;;;;;;;5.800001;4.25;;;;;;;7.22;64.125;96013.51;;;;
2022/04/16 00:09:14;;;;;;;5.800001;4.25;;;;;;;7.22;64.125;96013.51;;;;
2022/04/16 00:10:15;;;;;;;5.800001;4.25;;;;;;;7.22;64.125;96013.51;;;;
2022/04/16 00:11:15;;;;;;;5.800001;4.25;;;;;;;7.22;64.125;96013.51;;;;
2022/04/16 00:12:16;;;;;;;5.800001;4.25;;;;;;;7.22;64.125;96013.51;;;;
2022/04/16 00:13:16;;;;;;;5.9;4.25;;;;;;;6.92;64.34473;96016.61;;;;
2022/04/16 00:14:19;;;;;;;5.9;4.25;;;;;;;6.92;64.34473;96016.61;;;;
2022/04/16 00:15:20;;;;;;;5.9;4.25;;;;;;;6.92;64.34473;96016.61;;;;
2022/04/16 00:16:21;;;;;;;5.9;4.25;;;;;;;6.92;64.34473;96016.61;;;;
2022/04/16 00:17:21;;;;;;;5.9;4.25;;;;;;;6.92;64.34473;96016.61;;;;
2022/04/16 00:18:22;;;;;;;5.9;4.25;;;;;;;6.92;64.34473;96016.61;;;;
2022/04/16 00:19:23;;;;;;;5.9;4.25;;;;;;;6.92;64.34473;96016.61;;;;
2022/04/16 00:20:25;;;;;;;5.9;4.25;;;;;;;6.92;64.34473;96016.61;;;;
2022/04/16 00:21:25;;;;;;;5.9;4.25;;;;;;;6.92;64.34473;96016.61;;;;
2022/04/16 00:22:26;;;;;;;5.9;4.25;;;;;;;6.92;64.34473;96016.61;;;;
2022/04/16 00:23:27;;;;;;;5.9;4.25;;;;;;;6.92;64.34473;96016.61;;;;
2022/04/16 00:24:28;;;;;;;5.75;4.349999;;;;;;;6.68;64.62891;96007.14;;;;
2022/04/16 00:25:30;;;;;;;5.75;4.349999;;;;;;;6.68;64.62891;96007.14;;;;
2022/04/16 00:26:31;;;;;;;5.75;4.349999;;;;;;;6.68;64.62891;96007.14;;;;
2022/04/16 00:27:31;;;;;;;5.75;4.349999;;;;;;;6.68;64.62891;96007.14;;;;
2022/04/16 00:28:31;;;;;;;5.75;4.349999;;;;;;;6.68;64.62891;96007.14;;;;
2022/04/16 00:29:32;;;;;;;5.75;4.349999;;;;;;;6.68;64.62891;96007.14;;;;
2022/04/16 00:30:37;;;;;;;5.75;4.349999;;;;;;;6.68;64.62891;96007.14;;;;
2022/04/16 00:31:38;;;;;;;5.75;4.349999;;;;;;;6.68;64.62891;96007.14;;;;
2022/04/16 00:32:40;;;;;;;5.75;4.349999;;;;;;;6.68;64.62891;96007.14;;;;
2022/04/16 00:33:40;;;;;;;5.75;4.349999;;;;;;;6.68;64.62891;96007.14;;;;
2022/04/16 00:34:41;;;;;;;5.75;4.349999;;;;;;;6.68;64.62891;96007.14;;;;
2022/04/16 00:35:42;;;;;;;7.15;4.15;;;;;;;6.62;64.75781;95999.88;;;;
2022/04/16 00:36:42;;;;;;;7.15;4.15;;;;;;;6.62;64.75781;95999.88;;;;
2022/04/16 00:37:43;;;;;;;7.15;4.15;;;;;;;6.62;64.75781;95999.88;;;;
2022/04/16 00:38:43;;;;;;;7.15;4.15;;;;;;;6.62;64.75781;95999.88;;;;
2022/04/16 00:39:44;;;;;;;7.15;4.15;;;;;;;6.62;64.75781;95999.88;;;;
2022/04/16 00:40:44;;;;;;;7.15;4.15;;;;;;;6.62;64.75781;95999.88;;;;
2022/04/16 00:41:45;;;;;;;7.15;4.15;;;;;;;6.62;64.75781;95999.88;;;;
2022/04/16 00:42:46;;;;;;;7.15;4.15;;;;;;;6.62;64.75781;95999.88;;;;
2022/04/16 00:43:46;;;;;;;7.15;4.15;;;;;;;6.62;64.75781;95999.88;;;;
2022/04/16 00:44:47;;;;;;;7.15;4.15;;;;;;;6.62;64.75781;95999.88;;;;
2022/04/16 00:45:47;;;;;;;4.75;4.050001;;;;;;;6.69;64.59766;95996.31;;;;
2022/04/16 00:46:48;;;;;;;4.75;4.050001;;;;;;;6.69;64.59766;95996.31;;;;
2022/04/16 00:47:48;;;;;;;4.75;4.050001;;;;;;;6.69;64.59766;95996.31;;;;
2022/04/16 00:48:49;;;;;;;4.75;4.050001;;;;;;;6.69;64.59766;95996.31;;;;
2022/04/16 00:49:50;;;;;;;4.75;4.050001;;;;;;;6.69;64.59766;95996.31;;;;
2022/04/16 00:50:51;;;;;;;4.75;4.050001;;;;;;;6.69;64.59766;95996.31;;;;
2022/04/16 00:51:53;;;;;;;4.75;4.050001;;;;;;;6.69;64.59766;95996.31;;;;
2022/04/16 00:52:54;;;;;;;4.75;4.050001;;;;;;;6.69;64.59766;95996.31;;;;
2022/04/16 00:53:55;;;;;;;4.75;4.050001;;;;;;;6.69;64.59766;95996.31;;;;
2022/04/16 00:54:55;;;;;;;4.75;4.050001;;;;;;;6.69;64.59766;95996.31;;;;
2022/04/16 00:55:56;;;;;;;4.75;4.050001;;;;;;;6.69;64.59766;95996.31;;;;
2022/04/16 00:56:57;;;;;;;4.4;3.9;;;;;;;6.64;64.68652;95999.15;;;;
2022/04/16 00:57:58;;;;;;;4.4;3.9;;;;;;;6.64;64.68652;95999.15;;;;
2022/04/16 00:58:59;;;;;;;4.4;3.9;;;;;;;6.64;64.68652;95999.15;;;;
2022/04/16 01:00:01;;;;;;;4.4;3.9;;;;;;;6.64;64.68652;95999.15;;;;
2022/04/16 01:01:05;;;;;;;4.4;3.9;;;;;;;6.64;64.68652;95999.15;;;;
2022/04/16 01:02:08;;;;;;;4.4;3.9;;;;;;;6.64;64.68652;95999.15;;;;
2022/04/16 01:03:08;;;;;;;4.4;3.9;;;;;;;6.64;64.68652;95999.15;;;;
2022/04/16 01:04:09;;;;;;;4.4;3.9;;;;;;;6.64;64.68652;95999.15;;;;
2022/04/16 01:05:12;;;;;;;4.4;3.9;;;;;;;6.64;64.68652;95999.15;;;;
2022/04/16 01:06:15;;;;;;;4.4;3.9;;;;;;;6.64;64.68652;95999.15;;;;
2022/04/16 01:07:16;;;;;;;4.649999;4.099999;;;;;;;6.63;64.76855;95982.33;;;;
2022/04/16 01:08:22;;;;;;;4.649999;4.099999;;;;;;;6.63;64.76855;95982.33;;;;
2022/04/16 01:09:22;;;;;;;4.649999;4.099999;;;;;;;6.63;64.76855;95982.33;;;;
2022/04/16 01:10:26;;;;;;;4.649999;4.099999;;;;;;;6.63;64.76855;95982.33;;;;
2022/04/16 01:11:28;;;;;;;4.649999;4.099999;;;;;;;6.63;64.76855;95982.33;;;;
2022/04/16 01:12:28;;;;;;;4.649999;4.099999;;;;;;;6.63;64.76855;95982.33;;;;
2022/04/16 01:13:29;;;;;;;4.649999;4.099999;;;;;;;6.63;64.76855;95982.33;;;;
2022/04/16 01:14:29;;;;;;;4.649999;4.099999;;;;;;;6.63;64.76855;95982.33;;;;
2022/04/16 01:15:30;;;;;;;4.649999;4.099999;;;;;;;6.63;64.76855;95982.33;;;;
2022/04/16 01:16:30;;;;;;;4.649999;4.099999;;;;;;;6.63;64.76855;95982.33;;;;
2022/04/16 01:17:31;;;;;;;4.649999;4.099999;;;;;;;6.63;64.76855;95982.33;;;;
2022/04/16 01:18:32;;;;;;;6.65;4.600001;;;;;;;6.64;64.8252;95985.74;;;;
2022/04/16 01:19:34;;;;;;;6.65;4.600001;;;;;;;6.64;64.8252;95985.74;;;;
2022/04/16 01:20:38;;;;;;;6.65;4.600001;;;;;;;6.64;64.8252;95985.74;;;;
2022/04/16 01:21:39;;;;;;;6.65;4.600001;;;;;;;6.64;64.8252;95985.74;;;;
2022/04/16 01:22:40;;;;;;;6.65;4.600001;;;;;;;6.64;64.8252;95985.74;;;;
2022/04/16 01:23:41;;;;;;;6.65;4.600001;;;;;;;6.64;64.8252;95985.74;;;;
2022/04/16 01:24:43;;;;;;;6.65;4.600001;;;;;;;6.64;64.8252;95985.74;;;;
2022/04/16 01:25:44;;;;;;;6.65;4.600001;;;;;;;6.64;64.8252;95985.74;;;;
2022/04/16 01:26:44;;;;;;;6.65;4.600001;;;;;;;6.64;64.8252;95985.74;;;;
2022/04/16 01:27:46;;;;;;;6.65;4.600001;;;;;;;6.64;64.8252;95985.74;;;;
2022/04/16 01:28:46;;;;;;;4.349999;3.8;;;;;;;6.66;64.89258;95988.12;;;;
2022/04/16 01:29:48;;;;;;;4.349999;3.8;;;;;;;6.66;64.89258;95988.12;;;;
2022/04/16 01:30:48;;;;;;;4.349999;3.8;;;;;;;6.66;64.89258;95988.12;;;;
2022/04/16 01:31:49;;;;;;;4.349999;3.8;;;;;;;6.66;64.89258;95988.12;;;;
2022/04/16 01:32:49;;;;;;;4.349999;3.8;;;;;;;6.66;64.89258;95988.12;;;;
2022/04/16 01:33:50;;;;;;;4.349999;3.8;;;;;;;6.66;64.89258;95988.12;;;;
2022/04/16 01:34:50;;;;;;;4.349999;3.8;;;;;;;6.66;64.89258;95988.12;;;;
2022/04/16 01:35:53;;;;;;;4.349999;3.8;;;;;;;6.66;64.89258;95988.12;;;;
2022/04/16 01:36:53;;;;;;;4.349999;3.8;;;;;;;6.66;64.89258;95988.12;;;;
2022/04/16 01:37:54;;;;;;;4.349999;3.8;;;;;;;6.66;64.89258;95988.12;;;;
2022/04/16 01:38:54;;;;;;;4.4;3.7;;;;;;;6.59;64.94531;95986.33;;;;
2022/04/16 01:39:56;;;;;;;4.4;3.7;;;;;;;6.59;64.94531;95986.33;;;;
2022/04/16 01:40:58;;;;;;;4.4;3.7;;;;;;;6.59;64.94531;95986.33;;;;
2022/04/16 01:41:59;;;;;;;4.4;3.7;;;;;;;6.59;64.94531;95986.33;;;;
2022/04/16 01:43:00;;;;;;;4.4;3.7;;;;;;;6.59;64.94531;95986.33;;;;
2022/04/16 01:44:00;;;;;;;4.4;3.7;;;;;;;6.59;64.94531;95986.33;;;;
2022/04/16 01:45:01;;;;;;;4.4;3.7;;;;;;;6.59;64.94531;95986.33;;;;
2022/04/16 01:46:02;;;;;;;4.4;3.7;;;;;;;6.59;64.94531;95986.33;;;;
2022/04/16 01:47:03;;;;;;;4.4;3.7;;;;;;;6.59;64.94531;95986.33;;;;
2022/04/16 01:48:04;;;;;;;4.4;3.7;;;;;;;6.59;64.94531;95986.33;;;;
2022/04/16 01:49:05;;;;;;;4.4;3.7;;;;;;;6.59;64.94531;95986.33;;;;
2022/04/16 01:50:06;;;;;;;4.35;3.9;;;;;;;6.36;65.17676;95983.04;;;;
2022/04/16 01:51:10;;;;;;;4.35;3.9;;;;;;;6.36;65.17676;95983.04;;;;
2022/04/16 01:52:10;;;;;;;4.35;3.9;;;;;;;6.36;65.17676;95983.04;;;;
2022/04/16 01:53:11;;;;;;;4.35;3.9;;;;;;;6.36;65.17676;95983.04;;;;
2022/04/16 01:54:12;;;;;;;4.35;3.9;;;;;;;6.36;65.17676;95983.04;;;;
2022/04/16 01:55:12;;;;;;;4.35;3.9;;;;;;;6.36;65.17676;95983.04;;;;
2022/04/16 01:56:13;;;;;;;4.35;3.9;;;;;;;6.36;65.17676;95983.04;;;;
2022/04/16 01:57:14;;;;;;;4.35;3.9;;;;;;;6.36;65.17676;95983.04;;;;
2022/04/16 01:58:14;;;;;;;4.35;3.9;;;;;;;6.36;65.17676;95983.04;;;;
2022/04/16 01:59:15;;;;;;;4.35;3.9;;;;;;;6.36;65.17676;95983.04;;;;
2022/04/16 02:00:16;;;;;;;4.35;3.9;;;;;;;6.36;65.17676;95983.04;;;;
2022/04/16 02:01:18;;;;;;;4.55;4.100001;;;;;;;6.13;65.55566;95976.64;;;;
2022/04/16 02:02:19;;;;;;;4.55;4.100001;;;;;;;6.13;65.55566;95976.64;;;;
2022/04/16 02:03:21;;;;;;;4.55;4.100001;;;;;;;6.13;65.55566;95976.64;;;;
2022/04/16 02:04:21;;;;;;;4.55;4.100001;;;;;;;6.13;65.55566;95976.64;;;;
2022/04/16 02:05:22;;;;;;;4.55;4.100001;;;;;;;6.13;65.55566;95976.64;;;;
2022/04/16 02:06:23;;;;;;;4.55;4.100001;;;;;;;6.13;65.55566;95976.64;;;;
2022/04/16 02:07:24;;;;;;;4.55;4.100001;;;;;;;6.13;65.55566;95976.64;;;;
2022/04/16 02:08:24;;;;;;;4.55;4.100001;;;;;;;6.13;65.55566;95976.64;;;;
2022/04/16 02:09:25;;;;;;;4.55;4.100001;;;;;;;6.13;65.55566;95976.64;;;;
2022/04/16 02:10:25;;;;;;;4.55;4.100001;;;;;;;6.13;65.55566;95976.64;;;;
2022/04/16 02:11:26;;;;;;;5.150001;4.15;;;;;;;6.04;65.75488;95976.86;;;;
2022/04/16 02:12:27;;;;;;;5.150001;4.15;;;;;;;6.04;65.75488;95976.86;;;;
2022/04/16 02:13:27;;;;;;;5.150001;4.15;;;;;;;6.04;65.75488;95976.86;;;;
2022/04/16 02:14:28;;;;;;;5.150001;4.15;;;;;;;6.04;65.75488;95976.86;;;;
2022/04/16 02:15:28;;;;;;;5.150001;4.15;;;;;;;6.04;65.75488;95976.86;;;;
2022/04/16 02:16:29;;;;;;;5.150001;4.15;;;;;;;6.04;65.75488;95976.86;;;;
2022/04/16 02:17:32;;;;;;;5.150001;4.15;;;;;;;6.04;65.75488;95976.86;;;;
2022/04/16 02:18:33;;;;;;;5.150001;4.15;;;;;;;6.04;65.75488;95976.86;;;;
2022/04/16 02:19:36;;;;;;;5.150001;4.15;;;;;;;6.04;65.75488;95976.86;;;;
2022/04/16 02:20:37;;;;;;;5.150001;4.15;;;;;;;6.04;65.75488;95976.86;;;;
2022/04/16 02:21:38;;;;;;;5.150001;4.15;;;;;;;6.04;65.75488;95976.86;;;;
2022/04/16 02:22:39;;;;;;;5;4;;;;;;;6;65.95996;95985.88;;;;
2022/04/16 02:23:41;;;;;;;5;4;;;;;;;6;65.95996;95985.88;;;;
2022/04/16 02:24:41;;;;;;;5;4;;;;;;;6;65.95996;95985.88;;;;
2022/04/16 02:25:43;;;;;;;5;4;;;;;;;6;65.95996;95985.88;;;;
2022/04/16 02:26:44;;;;;;;5;4;;;;;;;6;65.95996;95985.88;;;;
2022/04/16 02:27:45;;;;;;;5;4;;;;;;;6;65.95996;95985.88;;;;
2022/04/16 02:28:47;;;;;;;5;4;;;;;;;6;65.95996;95985.88;;;;
2022/04/16 02:29:48;;;;;;;5;4;;;;;;;6;65.95996;95985.88;;;;
2022/04/16 02:30:49;;;;;;;5;4;;;;;;;6;65.95996;95985.88;;;;
2022/04/16 02:31:50;;;;;;;5;4;;;;;;;6;65.95996;95985.88;;;;
2022/04/16 02:32:52;;;;;;;6.1;4.2;;;;;;;6.11;66;95983.53;;;;
2022/04/16 02:33:52;;;;;;;6.1;4.2;;;;;;;6.11;66;95983.53;;;;
2022/04/16 02:34:55;;;;;;;6.1;4.2;;;;;;;6.11;66;95983.53;;;;
2022/04/16 02:35:57;;;;;;;6.1;4.2;;;;;;;6.11;66;95983.53;;;;
2022/04/16 02:36:58;;;;;;;6.1;4.2;;;;;;;6.11;66;95983.53;;;;
2022/04/16 02:37:58;;;;;;;6.1;4.2;;;;;;;6.11;66;95983.53;;;;
2022/04/16 02:38:59;;;;;;;6.1;4.2;;;;;;;6.11;66;95983.53;;;;
2022/04/16 02:40:00;;;;;;;6.1;4.2;;;;;;;6.11;66;95983.53;;;;
2022/04/16 02:41:01;;;;;;;6.1;4.2;;;;;;;6.11;66;95983.53;;;;
2022/04/16 02:42:01;;;;;;;6.1;4.2;;;;;;;6.11;66;95983.53;;;;
2022/04/16 02:43:02;;;;;;;6.1;4.2;;;;;;;6.11;66;95983.53;;;;
2022/04/16 02:44:03;;;;;;;5.4;4.550001;;;;;;;6.21;66.04492;95968.03;;;;
2022/04/16 02:50:15;;;;;;;5.4;4.550001;;;;;;;6.21;66.04492;95968.03;;;;
2022/04/16 02:51:16;;;;;;;5.4;4.550001;;;;;;;6.21;66.04492;95968.03;;;;
2022/04/16 02:52:16;;;;;;;5.4;4.550001;;;;;;;6.21;66.04492;95968.03;;;;
2022/04/16 02:53:17;;;;;;;5.4;4.550001;;;;;;;6.21;66.04492;95968.03;;;;
2022/04/16 02:54:17;;;;;;;5.55;4.400001;;;;;;;6.14;66.18359;95977.36;;;;
2022/04/16 02:55:18;;;;;;;5.55;4.400001;;;;;;;6.14;66.18359;95977.36;;;;
2022/04/16 02:56:19;;;;;;;5.55;4.400001;;;;;;;6.14;66.18359;95977.36;;;;
2022/04/16 02:57:19;;;;;;;5.55;4.400001;;;;;;;6.14;66.18359;95977.36;;;;
2022/04/16 02:58:20;;;;;;;5.55;4.400001;;;;;;;6.14;66.18359;95977.36;;;;
2022/04/16 02:59:21;;;;;;;5.55;4.400001;;;;;;;6.14;66.18359;95977.36;;;;
2022/04/16 03:00:22;;;;;;;5.55;4.400001;;;;;;;6.14;66.18359;95977.36;;;;
2022/04/16 03:01:22;;;;;;;5.55;4.400001;;;;;;;6.14;66.18359;95977.36;;;;
2022/04/16 03:02:23;;;;;;;5.55;4.400001;;;;;;;6.14;66.18359;95977.36;;;;
2022/04/16 03:03:23;;;;;;;5.55;4.400001;;;;;;;6.14;66.18359;95977.36;;;;
2022/04/16 03:04:26;;;;;;;5.55;4.400001;;;;;;;6.14;66.18359;95977.36;;;;
2022/04/16 03:05:27;;;;;;;5.5;4.5;;;;;;;5.96;66.57031;95977.89;;;;
2022/04/16 03:06:28;;;;;;;5.5;4.5;;;;;;;5.96;66.57031;95977.89;;;;
2022/04/16 03:07:28;;;;;;;5.5;4.5;;;;;;;5.96;66.57031;95977.89;;;;
2022/04/16 03:08:29;;;;;;;5.5;4.5;;;;;;;5.96;66.57031;95977.89;;;;
2022/04/16 03:09:29;;;;;;;5.5;4.5;;;;;;;5.96;66.57031;95977.89;;;;
2022/04/16 03:10:30;;;;;;;5.5;4.5;;;;;;;5.96;66.57031;95977.89;;;;
2022/04/16 03:11:31;;;;;;;5.5;4.5;;;;;;;5.96;66.57031;95977.89;;;;
2022/04/16 03:12:31;;;;;;;5.5;4.5;;;;;;;5.96;66.57031;95977.89;;;;
2022/04/16 03:13:40;;;;;;;5.5;4.5;;;;;;;5.96;66.57031;95977.89;;;;
2022/04/16 03:19:52;;;;;;;6.65;4.95;;;;;;;5.66;66.83105;95980.24;;;;
2022/04/16 03:20:53;;;;;;;6.65;4.95;;;;;;;5.66;66.83105;95980.24;;;;
2022/04/16 03:21:54;;;;;;;6.65;4.95;;;;;;;5.66;66.83105;95980.24;;;;
2022/04/16 03:22:55;;;;;;;6.65;4.95;;;;;;;5.66;66.83105;95980.24;;;;
2022/04/16 03:23:55;;;;;;;6.65;4.95;;;;;;;5.66;66.83105;95980.24;;;;
2022/04/16 03:24:56;;;;;;;6.65;4.95;;;;;;;5.66;66.83105;95980.24;;;;
2022/04/16 03:25:58;;;;;;;7.099999;5.1;;;;;;;5.26;67.28906;95983.85;;;;
2022/04/16 03:26:58;;;;;;;7.099999;5.1;;;;;;;5.26;67.28906;95983.85;;;;
2022/04/16 03:27:59;;;;;;;7.099999;5.1;;;;;;;5.26;67.28906;95983.85;;;;
2022/04/16 03:28:59;;;;;;;7.099999;5.1;;;;;;;5.26;67.28906;95983.85;;;;
2022/04/16 03:30:01;;;;;;;7.099999;5.1;;;;;;;5.26;67.28906;95983.85;;;;
2022/04/16 03:31:01;;;;;;;7.099999;5.1;;;;;;;5.26;67.28906;95983.85;;;;
2022/04/16 03:32:02;;;;;;;7.099999;5.1;;;;;;;5.26;67.28906;95983.85;;;;
2022/04/16 03:33:03;;;;;;;7.099999;5.1;;;;;;;5.26;67.28906;95983.85;;;;
2022/04/16 03:34:05;;;;;;;7.099999;5.1;;;;;;;5.26;67.28906;95983.85;;;;
2022/04/16 03:35:05;;;;;;;7.099999;5.1;;;;;;;5.26;67.28906;95983.85;;;;
2022/04/16 03:36:07;;;;;;;7.099999;5.1;;;;;;;5.26;67.28906;95983.85;;;;
2022/04/16 03:37:08;;;;;;;6.8;5.400001;;;;;;;4.96;67.68652;95976.01;;;;
2022/04/16 03:38:08;;;;;;;6.8;5.400001;;;;;;;4.96;67.68652;95976.01;;;;
2022/04/16 03:39:09;;;;;;;6.8;5.400001;;;;;;;4.96;67.68652;95976.01;;;;
2022/04/16 03:40:09;;;;;;;6.8;5.400001;;;;;;;4.96;67.68652;95976.01;;;;
2022/04/16 03:41:11;;;;;;;6.8;5.400001;;;;;;;4.96;67.68652;95976.01;;;;
2022/04/16 03:42:12;;;;;;;6.8;5.400001;;;;;;;4.96;67.68652;95976.01;;;;
2022/04/16 03:43:12;;;;;;;6.8;5.400001;;;;;;;4.96;67.68652;95976.01;;;;
2022/04/16 03:44:13;;;;;;;6.8;5.400001;;;;;;;4.96;67.68652;95976.01;;;;
2022/04/16 03:45:14;;;;;;;6.8;5.400001;;;;;;;4.96;67.68652;95976.01;;;;
2022/04/16 03:46:16;;;;;;;6.8;5.400001;;;;;;;4.96;67.68652;95976.01;;;;
2022/04/16 03:47:16;;;;;;;7.599999;5.45;;;;;;;4.73;67.83008;95983.18;;;;
2022/04/16 03:48:17;;;;;;;7.599999;5.45;;;;;;;4.73;67.83008;95983.18;;;;
2022/04/16 03:49:17;;;;;;;7.599999;5.45;;;;;;;4.73;67.83008;95983.18;;;;
2022/04/16 03:50:18;;;;;;;7.599999;5.45;;;;;;;4.73;67.83008;95983.18;;;;
2022/04/16 03:51:19;;;;;;;7.599999;5.45;;;;;;;4.73;67.83008;95983.18;;;;
2022/04/16 03:52:20;;;;;;;7.599999;5.45;;;;;;;4.73;67.83008;95983.18;;;;
2022/04/16 03:53:20;;;;;;;7.599999;5.45;;;;;;;4.73;67.83008;95983.18;;;;
2022/04/16 04:00:05;;;;;;;8.050001;5.599999;;;;;;;4.43;68.11035;95987.75;;;;
2022/04/16 04:01:07;;;;;;;8.050001;5.599999;;;;;;;4.43;68.11035;95987.75;;;;
2022/04/16 04:02:08;;;;;;;8.050001;5.599999;;;;;;;4.43;68.11035;95987.75;;;;
2022/04/16 04:03:08;;;;;;;8.050001;5.599999;;;;;;;4.43;68.11035;95987.75;;;;
2022/04/16 04:04:10;;;;;;;8.050001;5.599999;;;;;;;4.43;68.11035;95987.75;;;;
2022/04/16 04:05:11;;;;;;;8.050001;5.599999;;;;;;;4.43;68.11035;95987.75;;;;
2022/04/16 04:06:12;;;;;;;8.050001;5.599999;;;;;;;4.43;68.11035;95987.75;;;;
2022/04/16 04:07:12;;;;;;;8.050001;5.599999;;;;;;;4.43;68.11035;95987.75;;;;
2022/04/16 04:08:13;;;;;;;8.050001;5.599999;;;;;;;4.43;68.11035;95987.75;;;;
2022/04/16 04:09:14;;;;;;;9.299999;6.600001;;;;;;;4.25;68.2832;95989.42;;;;
2022/04/16 04:10:15;;;;;;;9.299999;6.600001;;;;;;;4.25;68.2832;95989.42;;;;
2022/04/16 04:11:15;;;;;;;9.299999;6.600001;;;;;;;4.25;68.2832;95989.42;;;;
2022/04/16 04:12:16;;;;;;;9.299999;6.600001;;;;;;;4.25;68.2832;95989.42;;;;
2022/04/16 04:13:16;;;;;;;9.299999;6.600001;;;;;;;4.25;68.2832;95989.42;;;;
2022/04/16 04:14:18;;;;;;;9.299999;6.600001;;;;;;;4.25;68.2832;95989.42;;;;
2022/04/16 04:15:18;;;;;;;9.299999;6.600001;;;;;;;4.25;68.2832;95989.42;;;;
2022/04/16 04:16:19;;;;;;;9.299999;6.600001;;;;;;;4.25;68.2832;95989.42;;;;
2022/04/16 04:17:20;;;;;;;9.299999;6.600001;;;;;;;4.25;68.2832;95989.42;;;;
2022/04/16 04:18:22;;;;;;;9.299999;6.600001;;;;;;;4.25;68.2832;95989.42;;;;
2022/04/16 04:19:23;;;;;;;9.650001;6.45;;;;;;;4.13;68.37988;95996.28;;;;
2022/04/16 04:20:23;;;;;;;9.650001;6.45;;;;;;;4.13;68.37988;95996.28;;;;
2022/04/16 04:21:23;;;;;;;9.650001;6.45;;;;;;;4.13;68.37988;95996.28;;;;
2022/04/16 04:22:24;;;;;;;9.650001;6.45;;;;;;;4.13;68.37988;95996.28;;;;
2022/04/16 04:23:24;;;;;;;9.650001;6.45;;;;;;;4.13;68.37988;95996.28;;;;
2022/04/16 04:24:25;;;;;;;9.650001;6.45;;;;;;;4.13;68.37988;95996.28;;;;
2022/04/16 04:25:25;;;;;;;9.650001;6.45;;;;;;;4.13;68.37988;95996.28;;;;
2022/04/16 04:26:26;;;;;;;9.650001;6.45;;;;;;;4.13;68.37988;95996.28;;;;
2022/04/16 04:27:27;;;;;;;9.650001;6.45;;;;;;;4.13;68.37988;95996.28;;;;
2022/04/16 04:28:27;;;;;;;9.650001;6.45;;;;;;;4.13;68.37988;95996.28;;;;
2022/04/16 04:29:27;;;;;;;9.650001;6.45;;;;;;;4.13;68.37988;95996.28;;;;
2022/04/16 04:30:30;;;;;;;10.05;6.45;;;;;;;3.96;68.58301;95999.16;;;;
2022/04/16 04:31:31;;;;;;;10.05;6.45;;;;;;;3.96;68.58301;95999.16;;;;
2022/04/16 04:32:31;;;;;;;10.05;6.45;;;;;;;3.96;68.58301;95999.16;;;;
2022/04/16 04:33:32;;;;;;;10.05;6.45;;;;;;;3.96;68.58301;95999.16;;;;
2022/04/16 04:34:32;;;;;;;10.05;6.45;;;;;;;3.96;68.58301;95999.16;;;;
2022/04/16 04:35:33;;;;;;;10.05;6.45;;;;;;;3.96;68.58301;95999.16;;;;
2022/04/16 04:36:33;;;;;;;10.05;6.45;;;;;;;3.96;68.58301;95999.16;;;;
2022/04/16 04:37:34;;;;;;;10.05;6.45;;;;;;;3.96;68.58301;95999.16;;;;
2022/04/16 04:38:35;;;;;;;10.05;6.45;;;;;;;3.96;68.58301;95999.16;;;;
2022/04/16 04:39:35;;;;;;;10.05;6.45;;;;;;;3.96;68.58301;95999.16;;;;
2022/04/16 04:40:36;;;;;;;11.7;7.150001;;;;;;;3.88;68.87695;96005.49;;;;
2022/04/16 04:41:36;;;;;;;11.7;7.150001;;;;;;;3.88;68.87695;96005.49;;;;
2022/04/16 04:42:37;;;;;;;11.7;7.150001;;;;;;;3.88;68.87695;96005.49;;;;
2022/04/16 04:43:37;;;;;;;11.7;7.150001;;;;;;;3.88;68.87695;96005.49;;;;
2022/04/16 04:44:38;;;;;;;11.7;7.150001;;;;;;;3.88;68.87695;96005.49;;;;
2022/04/16 04:45:40;;;;;;;11.7;7.150001;;;;;;;3.88;68.87695;96005.49;;;;
2022/04/16 04:46:40;;;;;;;11.7;7.150001;;;;;;;3.88;68.87695;96005.49;;;;
2022/04/16 04:47:42;;;;;;;11.7;7.150001;;;;;;;3.88;68.87695;96005.49;;;;
2022/04/16 04:48:43;;;;;;;11.7;7.150001;;;;;;;3.88;68.87695;96005.49;;;;
2022/04/16 04:49:43;;;;;;;11.7;7.150001;;;;;;;3.88;68.87695;96005.49;;;;
2022/04/16 04:50:44;;;;;;;11.7;7.150001;;;;;;;3.88;68.87695;96005.49;;;;
2022/04/16 04:51:44;;;;;;;14.8;7.799999;;;;;;;3.93;68.98145;96008.87;;;;
2022/04/16 04:52:45;;;;;;;14.8;7.799999;;;;;;;3.93;68.98145;96008.87;;;;
2022/04/16 04:53:45;;;;;;;14.8;7.799999;;;;;;;3.93;68.98145;96008.87;;;;
2022/04/16 04:54:46;;;;;;;14.8;7.799999;;;;;;;3.93;68.98145;96008.87;;;;
2022/04/16 04:55:46;;;;;;;14.8;7.799999;;;;;;;3.93;68.98145;96008.87;;;;
2022/04/16 04:56:47;;;;;;;14.8;7.799999;;;;;;;3.93;68.98145;96008.87;;;;
2022/04/16 04:57:54;;;;;;;14.8;7.799999;;;;;;;3.93;68.98145;96008.87;;;;
2022/04/16 04:58:54;;;;;;;14.8;7.799999;;;;;;;3.93;68.98145;96008.87;;;;
2022/04/16 04:59:55;;;;;;;14.8;7.799999;;;;;;;3.93;68.98145;96008.87;;;;
2022/04/16 05:00:55;;;;;;;14.8;7.799999;;;;;;;3.93;68.98145;96008.87;;;;
2022/04/16 05:01:56;;;;;;;14.8;7.799999;;;;;;;3.93;68.98145;96008.87;;;;
2022/04/16 05:02:56;;;;;;;12.3;7.75;;;;;;;4.1;68.91211;96026.46;;;;
2022/04/16 05:03:57;;;;;;;12.3;7.75;;;;;;;4.1;68.91211;96026.46;;;;
2022/04/16 05:04:57;;;;;;;12.3;7.75;;;;;;;4.1;68.91211;96026.46;;;;
2022/04/16 05:05:58;;;;;;;12.3;7.75;;;;;;;4.1;68.91211;96026.46;;;;
2022/04/16 05:06:58;;;;;;;12.3;7.75;;;;;;;4.1;68.91211;96026.46;;;;
2022/04/16 05:07:58;;;;;;;12.3;7.75;;;;;;;4.1;68.91211;96026.46;;;;
2022/04/16 05:08:59;;;;;;;12.3;7.75;;;;;;;4.1;68.91211;96026.46;;;;
2022/04/16 05:09:59;;;;;;;12.3;7.75;;;;;;;4.1;68.91211;96026.46;;;;
2022/04/16 05:11:00;;;;;;;12.3;7.75;;;;;;;4.1;68.91211;96026.46;;;;
2022/04/16 05:12:00;;;;;;;12.3;7.75;;;;;;;4.1;68.91211;96026.46;;;;
2022/04/16 05:13:01;;;;;;;11.9;8.000001;;;;;;;4.18;68.93652;96026.39;;;;
2022/04/16 05:14:01;;;;;;;11.9;8.000001;;;;;;;4.18;68.93652;96026.39;;;;
2022/04/16 05:15:02;;;;;;;11.9;8.000001;;;;;;;4.18;68.93652;96026.39;;;;
2022/04/16 05:16:05;;;;;;;11.9;8.000001;;;;;;;4.18;68.93652;96026.39;;;;
2022/04/16 05:17:05;;;;;;;11.9;8.000001;;;;;;;4.18;68.93652;96026.39;;;;
2022/04/16 05:18:06;;;;;;;11.9;8.000001;;;;;;;4.18;68.93652;96026.39;;;;
2022/04/16 05:19:06;;;;;;;11.9;8.000001;;;;;;;4.18;68.93652;96026.39;;;;
2022/04/16 05:20:07;;;;;;;11.9;8.000001;;;;;;;4.18;68.93652;96026.39;;;;
2022/04/16 05:21:08;;;;;;;11.9;8.000001;;;;;;;4.18;68.93652;96026.39;;;;
2022/04/16 05:22:09;;;;;;;11.9;8.000001;;;;;;;4.18;68.93652;96026.39;;;;
2022/04/16 05:23:09;;;;;;;11.9;8.000001;;;;;;;4.18;68.93652;96026.39;;;;
2022/04/16 05:24:10;;;;;;;12.6;8.150002;;;;;;;4.31;69.10547;96039.98;;;;
2022/04/16 05:25:10;;;;;;;12.6;8.150002;;;;;;;4.31;69.10547;96039.98;;;;
2022/04/16 05:26:11;;;;;;;12.6;8.150002;;;;;;;4.31;69.10547;96039.98;;;;
2022/04/16 05:27:12;;;;;;;12.6;8.150002;;;;;;;4.31;69.10547;96039.98;;;;
2022/04/16 05:28:13;;;;;;;12.6;8.150002;;;;;;;4.31;69.10547;96039.98;;;;
2022/04/16 05:29:14;;;;;;;12.6;8.150002;;;;;;;4.31;69.10547;96039.98;;;;
2022/04/16 05:30:22;;;;;;;12.6;8.150002;;;;;;;4.31;69.10547;96039.98;;;;
2022/04/16 05:31:26;;;;;;;12.6;8.150002;;;;;;;4.31;69.10547;96039.98;;;;
2022/04/16 05:32:26;;;;;;;12.6;8.150002;;;;;;;4.31;69.10547;96039.98;;;;
2022/04/16 05:34:37;;;;;;;12.6;8.150002;;;;;;;4.31;69.10547;96039.98;;;;
2022/04/16 05:35:38;;;;;;;11.2;8.15;;;;;;;4.59;69.20215;96032.25;;;;
2022/04/16 05:36:38;;;;;;;11.2;8.15;;;;;;;4.59;69.20215;96032.25;;;;
2022/04/16 05:37:39;;;;;;;11.2;8.15;;;;;;;4.59;69.20215;96032.25;;;;
2022/04/16 05:38:40;;;;;;;11.2;8.15;;;;;;;4.59;69.20215;96032.25;;;;
2022/04/16 05:39:40;;;;;;;11.2;8.15;;;;;;;4.59;69.20215;96032.25;;;;
2022/04/16 05:40:41;;;;;;;11.2;8.15;;;;;;;4.59;69.20215;96032.25;;;;
2022/04/16 05:41:41;;;;;;;11.2;8.15;;;;;;;4.59;69.20215;96032.25;;;;
2022/04/16 05:42:42;;;;;;;11.2;8.15;;;;;;;4.59;69.20215;96032.25;;;;
2022/04/16 05:43:43;;;;;;;11.2;8.15;;;;;;;4.59;69.20215;96032.25;;;;
2022/04/16 05:44:44;;;;;;;11.2;8.15;;;;;;;4.59;69.20215;96032.25;;;;
2022/04/16 05:45:44;;;;;;;11.3;7.200001;;;;;;;5.04;69.11719;96051.68;;;;
2022/04/16 05:46:45;;;;;;;11.3;7.200001;;;;;;;5.04;69.11719;96051.68;;;;
2022/04/16 05:47:45;;;;;;;11.3;7.200001;;;;;;;5.04;69.11719;96051.68;;;;
2022/04/16 05:48:46;;;;;;;11.3;7.200001;;;;;;;5.04;69.11719;96051.68;;;;
2022/04/16 05:49:46;;;;;;;11.3;7.200001;;;;;;;5.04;69.11719;96051.68;;;;
2022/04/16 05:50:47;;;;;;;11.3;7.200001;;;;;;;5.04;69.11719;96051.68;;;;
2022/04/16 05:51:47;;;;;;;11.3;7.200001;;;;;;;5.04;69.11719;96051.68;;;;
2022/04/16 05:52:49;;;;;;;11.3;7.200001;;;;;;;5.04;69.11719;96051.68;;;;
2022/04/16 05:53:49;;;;;;;11.3;7.200001;;;;;;;5.04;69.11719;96051.68;;;;
2022/04/16 05:54:50;;;;;;;11.3;7.200001;;;;;;;5.04;69.11719;96051.68;;;;
2022/04/16 05:55:51;;;;;;;10.1;7.150001;;;;;;;5.69;69.1582;96052.18;;;;
2022/04/16 05:56:52;;;;;;;10.1;7.150001;;;;;;;5.69;69.1582;96052.18;;;;
2022/04/16 05:57:53;;;;;;;10.1;7.150001;;;;;;;5.69;69.1582;96052.18;;;;